»·PEaware :: AAL918 KSAN-KIPL

AAL918 :: KSAN-KIPL

FLIGHT INFORMATION

Flight Status: Arrived
Operator:
American Airlines
More flights by this operator :: More flights under this callsign
Pilot: Chris A. (85)
Aircraft: Unknown
(TRIM)
More flights by this aircraft type
Origin: KSAN San Diego Intl-Lindbergh
United States
Destination: KIPL Imperial Co
United States
More flights between these airports :: More routes between these airports
Route: +BRDR7 IPL
File this flight plan on PilotEdge
Remarks:
Altitude:
(Current/Filed)
7,000ft
Speed:
(Current/Filed)
110kts
Departed: 11-Oct-17 08:30 PM
Arrived: 11-Oct-17 09:28 PM
Distance/Time
Traveled:
82nm/0:58
Distance/Time
To Go:
Arrived

Flight Plot

Page will automatically refresh every two minutes.


Map Options




Map Legend


Flown Route
Filed Route
Departure Airport
Arrival Airport
Navaid (VOR, NDB)
Fix

Horizontal Profiles

Position Reports

Time Latitude Longitude Heading Altitude Ground
Speed
11-Oct-17 20:23 32.730594 -117.191171 327 23ft 0kts
11-Oct-17 20:24 32.730594 -117.191171 327 23ft 0kts
11-Oct-17 20:25 32.730594 -117.191171 327 23ft 0kts
11-Oct-17 20:26 32.730594 -117.191171 327 23ft 0kts
11-Oct-17 20:27 32.730594 -117.191171 327 23ft 0kts
11-Oct-17 20:28 32.730594 -117.191171 327 23ft 0kts
11-Oct-17 20:29 32.730596 -117.191172 327 23ft 0kts
11-Oct-17 20:30 32.730598 -117.191173 327 23ft 0kts
11-Oct-17 20:31 32.732604 -117.190182 35 23ft 11kts
11-Oct-17 20:32 32.731489 -117.185623 100 23ft 21kts
11-Oct-17 20:33 32.729795 -117.178256 111 23ft 25kts
11-Oct-17 20:34 32.730289 -117.175923 289 23ft 9kts
11-Oct-17 20:35 32.734744 -117.193871 286 387ft 78kts
11-Oct-17 20:36 32.741393 -117.219235 287 1135ft 81kts
11-Oct-17 20:37 32.749366 -117.245892 288 1761ft 90kts
11-Oct-17 20:38 32.755082 -117.273910 289 2380ft 88kts
11-Oct-17 20:39 32.760624 -117.301512 266 2950ft 85kts
11-Oct-17 20:40 32.742904 -117.307055 112 3156ft 106kts
11-Oct-17 20:41 32.730108 -117.280603 116 3747ft 91kts
11-Oct-17 20:42 32.718757 -117.252938 118 4115ft 93kts
11-Oct-17 20:43 32.709939 -117.223769 101 4433ft 95kts
11-Oct-17 20:44 32.707273 -117.192485 90 4692ft 96kts
11-Oct-17 20:45 32.707828 -117.160693 98 4916ft 95kts
11-Oct-17 20:45 32.703344 -117.134874 103 5080ft 96kts
11-Oct-17 20:46 32.700858 -117.103116 92 5263ft 97kts
11-Oct-17 20:47 32.703162 -117.070887 79 5409ft 99kts
11-Oct-17 20:49 32.703237 -117.033167 98 5543ft 98kts
11-Oct-17 20:49 32.699794 -117.006660 108 5624ft 97kts
11-Oct-17 20:50 32.690215 -116.976687 115 5704ft 97kts
11-Oct-17 20:51 32.677244 -116.949146 129 5778ft 95kts
11-Oct-17 20:53 32.663362 -116.916252 110 5852ft 97kts
11-Oct-17 20:53 32.658062 -116.890066 107 5890ft 98kts
11-Oct-17 20:54 32.653458 -116.857577 103 5900ft 100kts
11-Oct-17 20:55 32.646438 -116.825816 102 5962ft 100kts
11-Oct-17 20:56 32.641918 -116.793175 97 6024ft 101kts
11-Oct-17 20:57 32.639392 -116.759866 113 6014ft 102kts
11-Oct-17 20:58 32.631413 -116.728294 107 6124ft 101kts
11-Oct-17 20:59 32.629369 -116.694925 96 6479ft 96kts
11-Oct-17 21:00 32.626869 -116.662878 98 6730ft 98kts
11-Oct-17 21:01 32.623703 -116.630545 94 7343ft 99kts
11-Oct-17 21:02 32.626314 -116.597749 86 7637ft 100kts
11-Oct-17 21:03 32.626367 -116.564701 101 7952ft 99kts
11-Oct-17 21:04 32.622575 -116.532202 95 8416ft 101kts
11-Oct-17 21:05 32.625005 -116.498792 86 8314ft 101kts
11-Oct-17 21:06 32.628801 -116.465639 77 8140ft 102kts
11-Oct-17 21:07 32.629356 -116.433449 123 8383ft 96kts
11-Oct-17 21:08 32.631309 -116.401052 74 8594ft 105kts
11-Oct-17 21:09 32.639361 -116.367505 76 8923ft 110kts
11-Oct-17 21:10 32.649861 -116.333371 72 8948ft 112kts
11-Oct-17 21:11 32.663028 -116.299915 74 8576ft 110kts
11-Oct-17 21:12 32.670927 -116.265572 83 8440ft 107kts
11-Oct-17 21:13 32.678268 -116.231452 77 8563ft 108kts
11-Oct-17 21:14 32.688784 -116.197891 69 8721ft 108kts
11-Oct-17 21:15 32.696296 -116.163200 77 8996ft 111kts
11-Oct-17 21:16 32.704398 -116.127684 76 9216ft 113kts
11-Oct-17 21:17 32.716660 -116.093391 70 8796ft 112kts
11-Oct-17 21:18 32.723153 -116.057422 84 8896ft 111kts
11-Oct-17 21:19 32.727891 -116.021154 82 8777ft 111kts
11-Oct-17 21:20 32.728275 -115.986749 97 8396ft 107kts
11-Oct-17 21:21 32.728119 -115.950806 85 8570ft 111kts
11-Oct-17 21:22 32.737313 -115.915150 75 8710ft 120kts
11-Oct-17 21:23 32.746919 -115.875671 75 8434ft 124kts
11-Oct-17 21:24 32.755918 -115.834390 78 7831ft 128kts
11-Oct-17 21:25 32.763486 -115.792827 81 7006ft 130kts
11-Oct-17 21:26 32.771310 -115.750677 75 6047ft 131kts
11-Oct-17 21:27 32.781690 -115.709360 75 5323ft 129kts
11-Oct-17 21:28 32.790615 -115.668477 78 4291ft 126kts
11-Oct-17 21:29 32.798477 -115.628261 79 3193ft 123kts
11-Oct-17 21:30 32.803933 -115.588347 80 2495ft 118kts
11-Oct-17 21:31 32.819584 -115.564924 325 216ft 95kts
11-Oct-17 21:32 32.834640 -115.574549 349 -47ft 8kts
11-Oct-17 21:33 32.834364 -115.573299 162 -47ft 16kts
11-Oct-17 21:34 32.833863 -115.572430 292 -47ft 6kts
11-Oct-17 21:35 32.833881 -115.572490 275 -47ft 0kts
11-Oct-17 21:36 32.833881 -115.572490 275 -47ft 0kts
11-Oct-17 21:37 32.833881 -115.572490 275 -47ft 0kts

Navigation Log

Ident Type
1. KSAN Airport
2. PGY Navaid
3. BROWS Fix
4. IPL Navaid
5. KIPL Airport